Terminal Aerodrome Forecast
Issued by NWS

Home | Current Version | Previous Version | Text Only | Print | Product List | Glossary On
Versions: 1 2 3 4 5 6 7 8 9 10 11 12 13 14
000
FTUS45 KMSO 280538
TAFSMN
TAF
KSMN 280538Z 2806/2906 34004KT 6SM -SN BKN025 OVC030
     FM280900 20003KT 3SM -SN BR BKN020 OVC030
     FM281500 VRB03KT 6SM -SN BR OVC030
      AMD LTD TO CLD VIS AND WIND=

USA.gov is the U.S. government's official web portal to all federal, state and local government web resources and services.